Terminal Aerodrome Forecast
Issued by NWS

Home | Current Version | Previous Version | Text Only | Print | Product List | Glossary On
Versions: 1 2 3 4 5 6 7 8 9 10 11 12 13 14 15 16 17 18 19 20 21 22 23 24 25 26
000
FTAK31 PAFA 260919 AAA
TAFAQT
TAF AMD
PAQT 260919Z 2609/2706 01008KT P6SM VCFG FEW007 SCT020
     FM261100 03006KT 1 1/2SM BR OVC007
     FM261200 03006KT 1/2SM FG OVC005
     FM261800 03006KT 1 1/2SM BR BKN007 OVC015
     FM262100 06006KT P6SM VCFG SCT007 OVC015=

USA.gov is the U.S. government's official web portal to all federal, state and local government web resources and services.